createdAt,value
2022-11-22T00:02:32.709Z,3.70
2022-11-22T00:05:21.665Z,3.70
2022-11-22T00:08:10.333Z,3.60
2022-11-22T00:10:58.923Z,3.60
2022-11-22T00:13:47.428Z,3.70
2022-11-22T00:16:37.269Z,3.60
2022-11-22T00:19:26.113Z,3.60
2022-11-22T00:22:14.593Z,3.60
2022-11-22T00:25:03.062Z,3.60
2022-11-22T00:27:51.897Z,3.70
2022-11-22T00:30:40.429Z,3.70
2022-11-22T00:33:30.243Z,3.70
2022-11-22T00:36:18.774Z,3.60
2022-11-22T00:39:07.375Z,3.70
2022-11-22T00:41:55.824Z,3.60
2022-11-22T00:44:47.607Z,3.50
2022-11-22T00:47:36.109Z,3.50
2022-11-22T00:50:25.979Z,3.50
2022-11-22T00:53:14.433Z,3.50
2022-11-22T00:56:02.876Z,3.50
2022-11-22T00:58:51.335Z,3.50
2022-11-22T01:01:39.872Z,3.60
2022-11-22T01:04:42.758Z,3.70
2022-11-22T01:07:32.599Z,3.60
2022-11-22T01:10:21.607Z,3.60
2022-11-22T01:13:12.825Z,3.60
2022-11-22T01:16:02.140Z,3.60
2022-11-22T01:18:50.684Z,3.60
2022-11-22T01:21:39.601Z,3.70
2022-11-22T01:24:29.460Z,3.70
2022-11-22T01:27:21.523Z,3.50
2022-11-22T01:30:10.611Z,3.50
2022-11-22T01:32:59.049Z,3.70
2022-11-22T01:35:47.685Z,3.50
2022-11-22T01:38:36.175Z,3.60
2022-11-22T01:41:26.001Z,3.70
2022-11-22T01:44:22.277Z,3.60
2022-11-22T01:47:14.849Z,3.50
2022-11-22T01:50:08.231Z,3.40
2022-11-22T01:53:01.398Z,3.50
2022-11-22T01:55:51.694Z,3.50
2022-11-22T01:58:44.245Z,3.50
2022-11-22T02:01:34.190Z,3.50
2022-11-22T02:04:26.050Z,3.50
2022-11-22T02:07:18.763Z,3.50
2022-11-22T02:10:08.264Z,3.60
2022-11-22T02:13:00.554Z,3.60
2022-11-22T02:15:50.891Z,3.70
2022-11-22T02:18:40.171Z,3.60
2022-11-22T02:21:29.665Z,3.60
2022-11-22T02:24:23.415Z,3.60
2022-11-22T02:27:13.286Z,3.60
2022-11-22T02:30:01.755Z,3.70
2022-11-22T02:32:50.571Z,3.70
2022-11-22T02:35:40.253Z,3.50
2022-11-22T02:38:33.848Z,3.60
2022-11-22T02:41:22.273Z,3.70
2022-11-22T02:44:13.521Z,3.60
2022-11-22T02:47:02.032Z,3.80
2022-11-22T02:49:50.491Z,3.80
2022-11-22T02:52:39.254Z,3.80
2022-11-22T02:55:27.764Z,3.60
2022-11-22T02:58:16.367Z,3.60
2022-11-22T03:01:06.332Z,3.70
2022-11-22T03:03:54.951Z,3.60
2022-11-22T03:06:43.686Z,3.50
2022-11-22T03:09:33.279Z,3.50
2022-11-22T03:12:21.993Z,3.60
2022-11-22T03:15:11.204Z,3.60
2022-11-22T03:18:02.060Z,3.50
2022-11-22T03:20:50.553Z,3.50
2022-11-22T03:23:39.165Z,3.50
2022-11-22T03:26:27.667Z,3.40
2022-11-22T03:29:16.303Z,3.60
2022-11-22T03:32:05.390Z,3.50
2022-11-22T03:34:55.324Z,3.60
2022-11-22T03:37:43.955Z,3.70
2022-11-22T03:40:32.471Z,3.80
2022-11-22T03:43:21.249Z,3.90
2022-11-22T03:46:15.705Z,3.70
2022-11-22T03:49:04.729Z,3.80
2022-11-22T03:51:54.712Z,3.60
2022-11-22T03:54:43.596Z,3.50
2022-11-22T03:57:32.104Z,3.40
2022-11-22T04:00:20.875Z,3.50
2022-11-22T04:03:09.409Z,3.50
2022-11-22T04:05:58.179Z,3.40
2022-11-22T04:08:48.084Z,3.40
2022-11-22T04:11:36.689Z,3.50
2022-11-22T04:14:42.703Z,3.60
2022-11-22T04:17:44.805Z,3.60
2022-11-22T04:20:51.060Z,3.60
2022-11-22T04:23:39.863Z,3.60
2022-11-22T04:26:28.665Z,3.50
2022-11-22T04:29:17.407Z,3.40
2022-11-22T04:32:38.045Z,3.50
2022-11-22T04:35:26.453Z,3.40
2022-11-22T04:38:16.349Z,3.50
2022-11-22T04:41:04.905Z,3.50
2022-11-22T04:44:12.219Z,3.50
2022-11-22T04:47:00.671Z,3.30
2022-11-22T04:49:49.248Z,3.40
2022-11-22T04:52:54.993Z,3.50
2022-11-22T04:55:45.192Z,3.40
2022-11-22T04:58:33.971Z,3.40
2022-11-22T05:01:24.018Z,3.30
2022-11-22T05:04:12.528Z,3.20
2022-11-22T05:07:01.058Z,3.20
2022-11-22T05:09:49.557Z,3.10
2022-11-22T05:12:38.185Z,3.30
2022-11-22T05:15:27.049Z,3.40
2022-11-22T05:18:16.974Z,3.50
2022-11-22T05:21:06.666Z,3.30
2022-11-22T05:23:54.497Z,3.30
2022-11-22T05:26:43.037Z,3.30
2022-11-22T05:29:32.072Z,3.40
2022-11-22T05:32:20.636Z,3.40
2022-11-22T05:35:10.922Z,3.40
2022-11-22T05:37:59.664Z,3.40
2022-11-22T05:40:48.441Z,3.40
2022-11-22T05:43:37.569Z,3.50
2022-11-22T05:46:28.083Z,3.50
2022-11-22T05:49:16.678Z,3.40
2022-11-22T05:52:06.797Z,3.40
2022-11-22T05:54:55.337Z,3.50
2022-11-22T05:57:43.801Z,3.40
2022-11-22T06:00:32.323Z,3.40
2022-11-22T06:03:20.823Z,3.40
2022-11-22T06:06:10.081Z,3.30
2022-11-22T06:09:00.887Z,3.30
2022-11-22T06:11:49.465Z,3.40
2022-11-22T06:14:42.951Z,3.40
2022-11-22T06:17:32.203Z,3.30
2022-11-22T06:20:20.886Z,3.30
2022-11-22T06:23:09.414Z,3.30
2022-11-22T06:26:00.591Z,3.40
2022-11-22T06:28:50.132Z,3.40
2022-11-22T06:31:38.633Z,3.30
2022-11-22T06:34:27.995Z,3.30
2022-11-22T06:37:17.058Z,3.30
2022-11-22T06:40:07.471Z,3.40
2022-11-22T06:42:57.579Z,3.50
2022-11-22T06:45:46.099Z,3.50
2022-11-22T06:48:36.682Z,3.50
2022-11-22T06:51:27.236Z,3.40
2022-11-22T06:54:16.024Z,3.50
2022-11-22T06:57:04.532Z,3.30
2022-11-22T06:59:54.330Z,3.50
2022-11-22T07:02:42.798Z,3.50
2022-11-22T07:05:31.674Z,3.50
2022-11-22T07:08:20.286Z,3.40
2022-11-22T07:11:10.855Z,3.20
2022-11-22T07:14:06.922Z,3.40
2022-11-22T07:16:57.347Z,3.40
2022-11-22T07:19:45.862Z,3.30
2022-11-22T07:22:34.321Z,3.20
2022-11-22T07:25:23.125Z,3.40
2022-11-22T07:28:11.616Z,3.60
2022-11-22T07:31:01.335Z,3.60
2022-11-22T07:33:51.255Z,3.50
2022-11-22T07:36:39.733Z,3.50
2022-11-22T07:39:29.291Z,3.60
2022-11-22T07:42:20.158Z,3.70
2022-11-22T07:45:12.471Z,3.80
2022-11-22T07:48:01.595Z,3.40
2022-11-22T07:50:51.520Z,3.30
2022-11-22T07:53:40.173Z,3.30
2022-11-22T07:56:28.690Z,3.20
2022-11-22T07:59:17.202Z,3.20
2022-11-22T08:02:05.757Z,3.20
2022-11-22T08:04:54.429Z,3.30
2022-11-22T08:07:48.918Z,3.40
2022-11-22T08:10:37.467Z,3.60
2022-11-22T08:13:26.318Z,3.70
2022-11-22T08:16:16.653Z,3.70
2022-11-22T08:19:06.305Z,3.70
2022-11-22T08:21:58.525Z,3.60
2022-11-22T08:24:48.720Z,3.60
2022-11-22T08:27:37.418Z,3.60
2022-11-22T08:30:26.107Z,3.70
2022-11-22T08:33:14.902Z,3.70
2022-11-22T08:36:03.824Z,3.80
2022-11-22T08:38:52.351Z,3.80
2022-11-22T08:41:42.704Z,3.90
2022-11-22T08:44:31.561Z,3.90
2022-11-22T08:47:20.127Z,3.90
2022-11-22T08:50:09.630Z,3.80
2022-11-22T08:52:58.307Z,3.80
2022-11-22T08:55:47.008Z,3.80
2022-11-22T08:58:37.873Z,3.90
2022-11-22T09:01:26.561Z,3.90
2022-11-22T09:04:15.044Z,3.80
2022-11-22T09:10:12.104Z,3.80
2022-11-22T09:13:00.760Z,3.90
2022-11-22T09:15:50.682Z,3.80
2022-11-22T09:18:40.072Z,4.00
2022-11-22T09:21:28.913Z,3.80
2022-11-22T09:24:17.637Z,3.80
2022-11-22T09:27:06.373Z,3.80
2022-11-22T09:29:55.054Z,3.80
2022-11-22T09:32:46.183Z,4.00
2022-11-22T09:35:34.743Z,4.10
2022-11-22T09:38:23.313Z,4.00
2022-11-22T09:41:40.914Z,3.90
2022-11-22T09:44:39.329Z,4.10
2022-11-22T09:47:38.376Z,4.00
2022-11-22T09:50:35.184Z,4.10
2022-11-22T09:53:30.876Z,4.00
2022-11-22T09:56:22.639Z,3.90
2022-11-22T09:59:16.505Z,4.00
2022-11-22T10:02:18.052Z,3.90
2022-11-22T10:05:16.915Z,3.90
2022-11-22T10:08:26.471Z,4.10
2022-11-22T10:11:36.841Z,4.40
2022-11-22T10:14:35.716Z,4.40
2022-11-22T10:17:39.874Z,4.30
2022-11-22T10:20:30.406Z,4.20
2022-11-22T10:23:22.404Z,4.50
2022-11-22T10:26:21.665Z,4.60
2022-11-22T10:29:28.483Z,4.70
2022-11-22T10:32:24.660Z,4.60
2022-11-22T10:35:33.591Z,4.40
2022-11-22T10:38:44.147Z,4.40
2022-11-22T10:41:43.059Z,4.60
2022-11-22T10:44:44.907Z,4.60
2022-11-22T10:47:46.685Z,4.80
2022-11-22T10:50:47.223Z,4.70
2022-11-22T10:53:48.952Z,4.90
2022-11-22T10:56:47.225Z,5.00
2022-11-22T10:59:51.574Z,5.00
2022-11-22T11:03:13.247Z,5.00
2022-11-22T11:06:24.541Z,5.00
2022-11-22T11:10:08.982Z,5.00
2022-11-22T11:12:39.960Z,5.00
2022-11-22T11:15:36.169Z,4.80
2022-11-22T11:18:29.903Z,5.00
2022-11-22T11:21:18.468Z,5.00
2022-11-22T11:24:14.034Z,5.10
2022-11-22T11:27:04.027Z,5.00
2022-11-22T11:29:56.882Z,5.10
2022-11-22T11:32:53.644Z,5.20
2022-11-22T11:35:42.619Z,5.10
2022-11-22T11:38:36.698Z,5.30
2022-11-22T11:41:29.536Z,5.20
2022-11-22T11:44:32.172Z,5.20
2022-11-22T11:47:33.255Z,5.10
2022-11-22T11:50:24.567Z,4.70
2022-11-22T11:53:25.461Z,5.00
2022-11-22T11:56:34.961Z,5.00
2022-11-22T11:59:25.424Z,4.80
2022-11-22T12:02:18.958Z,5.00
2022-11-22T12:05:25.173Z,5.10
2022-11-22T12:08:30.965Z,4.90
2022-11-22T12:11:25.418Z,4.60
2022-11-22T12:14:20.516Z,4.60
2022-11-22T12:17:19.373Z,4.70
2022-11-22T12:20:13.198Z,4.70
2022-11-22T12:23:13.915Z,4.90
2022-11-22T12:26:02.511Z,4.70
2022-11-22T12:28:51.374Z,4.70
2022-11-22T12:31:43.898Z,4.60
2022-11-22T12:34:39.115Z,4.60
2022-11-22T12:37:31.627Z,4.60
2022-11-22T12:40:26.745Z,4.50
2022-11-22T12:43:21.650Z,4.70
2022-11-22T12:46:15.004Z,4.50
2022-11-22T12:49:07.544Z,4.60
2022-11-22T12:52:05.313Z,4.80
2022-11-22T12:55:07.482Z,4.80
2022-11-22T12:58:02.273Z,4.70
2022-11-22T13:01:01.609Z,4.80
2022-11-22T13:03:55.336Z,4.80
2022-11-22T13:06:50.198Z,4.70
2022-11-22T13:09:47.274Z,4.70
2022-11-22T13:12:38.764Z,4.70
2022-11-22T13:15:30.049Z,4.50
2022-11-22T13:18:18.928Z,4.80
2022-11-22T13:21:17.125Z,4.50
2022-11-22T13:24:28.802Z,4.30
2022-11-22T13:27:23.837Z,4.70
2022-11-22T13:30:26.731Z,4.70
2022-11-22T13:33:26.817Z,4.70
2022-11-22T13:36:36.999Z,4.30
2022-11-22T13:39:26.835Z,4.40
2022-11-22T13:42:21.326Z,4.20
2022-11-22T13:45:22.441Z,4.40
2022-11-22T13:48:12.009Z,4.40
2022-11-22T13:51:03.249Z,4.40
2022-11-22T13:53:53.054Z,4.40
2022-11-22T13:57:01.061Z,4.50
2022-11-22T14:00:29.711Z,4.60
2022-11-22T14:03:41.818Z,4.40
2022-11-22T14:06:32.211Z,4.30
2022-11-22T14:09:40.398Z,4.20
2022-11-22T14:12:59.853Z,4.30
2022-11-22T14:16:18.582Z,4.30
2022-11-22T14:19:28.437Z,4.10
2022-11-22T14:22:25.407Z,4.20
2022-11-22T14:25:40.317Z,4.10
2022-11-22T14:29:13.318Z,4.20
2022-11-22T14:32:05.152Z,4.10
2022-11-22T14:35:23.606Z,4.10
2022-11-22T14:38:38.834Z,4.20
2022-11-22T14:41:44.893Z,4.00
2022-11-22T14:44:36.576Z,4.20
2022-11-22T14:47:27.035Z,4.00
2022-11-22T14:50:22.995Z,4.00
2022-11-22T14:53:24.051Z,3.80
2022-11-22T14:56:17.481Z,3.90
2022-11-22T14:59:21.793Z,4.00
2022-11-22T15:02:57.951Z,4.00
